Airfield :
LOGIN :

Register | Disclaimer

   EN    FR    IT 

 










Legend :    VFR   Marginal VFR   IFR   Intensive IFR   Very Intensive IFR
Visi :
Ceiling :
>= 8 km
>= 3000ft
5 to 8 km
1000 to 3000 ft
1500m to 5 km
500 to 1000 ft
800 to 1500m
200 to 500 ft
< 800m
< 200 ft
Symbols :   Thunderstorms  Fog  Heavy snow  Heavy precipitations  Wind > 20 kt
SIGMETs :     Misc.  Thunderstorms  Icing  Turbulence  Mountain Waves  Volcanic Ashes






- Airport Elevation : 265 ft


LFMC - Le Luc

CURRENT METAR :
  • 041100Z AUTO 11006KT 090V170 9999 ////// 36/13 Q1014

EXPIRED METARs :
  • 041030Z AUTO 14004KT 050V200 9999 ////// 35/12 Q1015
  • 041000Z AUTO 18003KT 090V240 9999 ////// 35/13 Q1015
  • 040930Z AUTO 13004KT 070V190 9999 ////// 34/12 Q1015
  • 040900Z AUTO 13004KT 070V180 9999 ////// 33/12 Q1015
  • 040830Z AUTO VRB02KT 9999 ////// 31/12 Q1016

TAF N/A



MET'MAP, your aeronautical weather chart ! - Copyright ORBIFLY December 2007 - Disclaimer

ORBIFLY MET'MAP TEAM :

Programming & Development : Alexandra Zaïnal
Original concept : Baudouin d'Aumeries
Technical & hardware support : Manuel Goepfert
Assistance : Marc-Olivier Méhu




SOURCES & CREDITS :

   NOAA